sensor_id;sensor_type;location;lat;lon;timestamp;P1;durP1;ratioP1;P2;durP2;ratioP2
43819;SDS011;67762;52.476;6.046;2023-04-24T00:01:51;62.72;;;59.42;;
43819;SDS011;67762;52.476;6.046;2023-04-24T00:04:18;560.67;;;307.52;;
43819;SDS011;67762;52.476;6.046;2023-04-24T00:06:43;70.15;;;66.47;;
43819;SDS011;67762;52.476;6.046;2023-04-24T00:09:09;1999.90;;;999.90;;
43819;SDS011;67762;52.476;6.046;2023-04-24T00:11:35;1999.90;;;999.90;;
43819;SDS011;67762;52.476;6.046;2023-04-24T00:14:02;1999.90;;;999.90;;
43819;SDS011;67762;52.476;6.046;2023-04-24T00:16:28;1999.90;;;999.90;;
43819;SDS011;67762;52.476;6.046;2023-04-24T00:18:54;1999.90;;;999.90;;
43819;SDS011;67762;52.476;6.046;2023-04-24T00:21:20;1999.90;;;999.90;;
43819;SDS011;67762;52.476;6.046;2023-04-24T00:23:45;54.10;;;51.25;;
43819;SDS011;67762;52.476;6.046;2023-04-24T00:26:11;69.32;;;65.78;;
43819;SDS011;67762;52.476;6.046;2023-04-24T00:28:36;1999.90;;;999.90;;
43819;SDS011;67762;52.476;6.046;2023-04-24T00:31:02;1999.90;;;999.90;;
43819;SDS011;67762;52.476;6.046;2023-04-24T00:33:28;1999.90;;;999.90;;
43819;SDS011;67762;52.476;6.046;2023-04-24T00:35:54;1999.90;;;999.90;;
43819;SDS011;67762;52.476;6.046;2023-04-24T00:38:19;1999.90;;;999.90;;
43819;SDS011;67762;52.476;6.046;2023-04-24T00:40:45;1999.90;;;999.90;;
43819;SDS011;67762;52.476;6.046;2023-04-24T00:43:12;1999.90;;;999.90;;
43819;SDS011;67762;52.476;6.046;2023-04-24T00:45:38;1999.90;;;999.90;;
43819;SDS011;67762;52.476;6.046;2023-04-24T00:48:03;1999.90;;;999.90;;
43819;SDS011;67762;52.476;6.046;2023-04-24T00:50:29;1999.90;;;999.90;;
43819;SDS011;67762;52.476;6.046;2023-04-24T00:52:55;1999.90;;;999.90;;
43819;SDS011;67762;52.476;6.046;2023-04-24T00:55:21;1999.90;;;999.90;;
43819;SDS011;67762;52.476;6.046;2023-04-24T00:57:47;1999.90;;;999.90;;
43819;SDS011;67762;52.476;6.046;2023-04-24T01:00:14;1999.90;;;999.90;;
43819;SDS011;67762;52.476;6.046;2023-04-24T01:02:42;1999.90;;;999.90;;
43819;SDS011;67762;52.476;6.046;2023-04-24T01:05:13;1999.90;;;999.90;;
43819;SDS011;67762;52.476;6.046;2023-04-24T01:07:40;1999.90;;;999.90;;
43819;SDS011;67762;52.476;6.046;2023-04-24T01:10:09;1999.90;;;999.90;;
43819;SDS011;67762;52.476;6.046;2023-04-24T01:12:35;1999.90;;;999.90;;
43819;SDS011;67762;52.476;6.046;2023-04-24T01:15:00;1999.90;;;999.90;;
43819;SDS011;67762;52.476;6.046;2023-04-24T01:17:26;1999.90;;;999.90;;
43819;SDS011;67762;52.476;6.046;2023-04-24T01:19:53;1999.90;;;999.90;;
43819;SDS011;67762;52.476;6.046;2023-04-24T01:22:19;1999.90;;;999.90;;
43819;SDS011;67762;52.476;6.046;2023-04-24T01:24:46;1999.90;;;999.90;;
43819;SDS011;67762;52.476;6.046;2023-04-24T01:27:11;1999.90;;;999.90;;
43819;SDS011;67762;52.476;6.046;2023-04-24T01:29:38;1999.90;;;999.90;;
43819;SDS011;67762;52.476;6.046;2023-04-24T01:32:04;1999.90;;;999.90;;
43819;SDS011;67762;52.476;6.046;2023-04-24T01:34:30;1999.90;;;999.90;;
43819;SDS011;67762;52.476;6.046;2023-04-24T01:36:57;1999.90;;;999.90;;
43819;SDS011;67762;52.476;6.046;2023-04-24T01:39:22;1999.90;;;999.90;;
43819;SDS011;67762;52.476;6.046;2023-04-24T01:41:52;1999.90;;;999.90;;
43819;SDS011;67762;52.476;6.046;2023-04-24T01:44:18;1999.90;;;999.90;;
43819;SDS011;67762;52.476;6.046;2023-04-24T01:46:45;1999.90;;;999.90;;
43819;SDS011;67762;52.476;6.046;2023-04-24T01:49:10;1999.90;;;999.90;;
43819;SDS011;67762;52.476;6.046;2023-04-24T01:51:37;1999.90;;;999.90;;
43819;SDS011;67762;52.476;6.046;2023-04-24T01:54:03;1999.90;;;999.90;;
43819;SDS011;67762;52.476;6.046;2023-04-24T01:56:28;1999.90;;;999.90;;
43819;SDS011;67762;52.476;6.046;2023-04-24T01:58:55;1999.90;;;999.90;;
43819;SDS011;67762;52.476;6.046;2023-04-24T02:01:25;1999.90;;;999.90;;
43819;SDS011;67762;52.476;6.046;2023-04-24T02:03:51;1999.90;;;999.90;;
43819;SDS011;67762;52.476;6.046;2023-04-24T02:06:17;1999.90;;;999.90;;
43819;SDS011;67762;52.476;6.046;2023-04-24T02:08:42;1999.90;;;999.90;;
43819;SDS011;67762;52.476;6.046;2023-04-24T02:11:09;1999.90;;;999.90;;
43819;SDS011;67762;52.476;6.046;2023-04-24T02:13:35;1999.90;;;999.90;;
43819;SDS011;67762;52.476;6.046;2023-04-24T02:16:01;1999.90;;;999.90;;
43819;SDS011;67762;52.476;6.046;2023-04-24T02:18:26;1999.90;;;999.90;;
43819;SDS011;67762;52.476;6.046;2023-04-24T02:20:52;1999.90;;;999.90;;
43819;SDS011;67762;52.476;6.046;2023-04-24T02:23:19;1999.90;;;999.90;;
43819;SDS011;67762;52.476;6.046;2023-04-24T02:25:45;1999.90;;;999.90;;
43819;SDS011;67762;52.476;6.046;2023-04-24T02:28:10;1999.90;;;999.90;;
43819;SDS011;67762;52.476;6.046;2023-04-24T02:30:36;1999.90;;;999.90;;
43819;SDS011;67762;52.476;6.046;2023-04-24T02:33:02;1999.90;;;999.90;;
43819;SDS011;67762;52.476;6.046;2023-04-24T02:35:29;1999.90;;;999.90;;
43819;SDS011;67762;52.476;6.046;2023-04-24T02:37:55;1999.90;;;999.90;;
43819;SDS011;67762;52.476;6.046;2023-04-24T02:40:20;1999.90;;;999.90;;
43819;SDS011;67762;52.476;6.046;2023-04-24T02:42:46;1999.90;;;999.90;;
43819;SDS011;67762;52.476;6.046;2023-04-24T02:45:12;1999.90;;;999.90;;
43819;SDS011;67762;52.476;6.046;2023-04-24T02:47:38;1999.90;;;999.90;;
43819;SDS011;67762;52.476;6.046;2023-04-24T02:50:04;1999.90;;;999.90;;
43819;SDS011;67762;52.476;6.046;2023-04-24T02:52:30;1999.90;;;999.90;;
43819;SDS011;67762;52.476;6.046;2023-04-24T02:54:55;1999.90;;;999.90;;
43819;SDS011;67762;52.476;6.046;2023-04-24T02:57:21;1999.90;;;999.90;;
43819;SDS011;67762;52.476;6.046;2023-04-24T02:59:47;1999.90;;;999.90;;
43819;SDS011;67762;52.476;6.046;2023-04-24T03:02:12;1999.90;;;999.90;;
43819;SDS011;67762;52.476;6.046;2023-04-24T03:04:38;1999.90;;;999.90;;
43819;SDS011;67762;52.476;6.046;2023-04-24T03:07:05;1999.90;;;999.90;;
43819;SDS011;67762;52.476;6.046;2023-04-24T03:09:31;1999.90;;;999.90;;
43819;SDS011;67762;52.476;6.046;2023-04-24T03:11:56;1999.90;;;999.90;;
43819;SDS011;67762;52.476;6.046;2023-04-24T03:14:23;1999.90;;;999.90;;
43819;SDS011;67762;52.476;6.046;2023-04-24T03:16:49;1999.90;;;999.90;;
43819;SDS011;67762;52.476;6.046;2023-04-24T03:19:15;1999.90;;;999.90;;
43819;SDS011;67762;52.476;6.046;2023-04-24T03:21:52;1999.90;;;999.90;;
43819;SDS011;67762;52.476;6.046;2023-04-24T03:24:18;1999.90;;;999.90;;
43819;SDS011;67762;52.476;6.046;2023-04-24T03:26:44;1999.90;;;999.90;;
43819;SDS011;67762;52.476;6.046;2023-04-24T03:29:28;1999.90;;;999.90;;
43819;SDS011;67762;52.476;6.046;2023-04-24T03:31:53;1999.90;;;999.90;;
43819;SDS011;67762;52.476;6.046;2023-04-24T03:34:19;1999.90;;;999.90;;
43819;SDS011;67762;52.476;6.046;2023-04-24T03:36:45;1999.90;;;999.90;;
43819;SDS011;67762;52.476;6.046;2023-04-24T03:39:13;1999.90;;;999.90;;
43819;SDS011;67762;52.476;6.046;2023-04-24T03:41:45;1999.90;;;999.90;;
43819;SDS011;67762;52.476;6.046;2023-04-24T03:44:17;1999.90;;;999.90;;
43819;SDS011;67762;52.476;6.046;2023-04-24T03:46:44;1999.90;;;999.90;;
43819;SDS011;67762;52.476;6.046;2023-04-24T03:49:09;1517.15;;;766.20;;
43819;SDS011;67762;52.476;6.046;2023-04-24T03:51:38;1040.35;;;538.28;;
43819;SDS011;67762;52.476;6.046;2023-04-24T03:54:25;1999.90;;;999.90;;
43819;SDS011;67762;52.476;6.046;2023-04-24T03:56:52;1512.30;;;761.65;;
43819;SDS011;67762;52.476;6.046;2023-04-24T03:59:18;1999.90;;;999.90;;
43819;SDS011;67762;52.476;6.046;2023-04-24T04:01:48;1999.90;;;999.90;;
43819;SDS011;67762;52.476;6.046;2023-04-24T04:04:15;1999.90;;;999.90;;
43819;SDS011;67762;52.476;6.046;2023-04-24T04:06:43;1999.90;;;999.90;;
43819;SDS011;67762;52.476;6.046;2023-04-24T04:09:09;1999.90;;;999.90;;
43819;SDS011;67762;52.476;6.046;2023-04-24T04:11:36;1999.90;;;999.90;;
43819;SDS011;67762;52.476;6.046;2023-04-24T04:14:02;1046.72;;;544.22;;
43819;SDS011;67762;52.476;6.046;2023-04-24T04:16:28;1022.88;;;521.55;;
43819;SDS011;67762;52.476;6.046;2023-04-24T04:19:00;1999.90;;;999.90;;
43819;SDS011;67762;52.476;6.046;2023-04-24T04:21:26;1065.50;;;561.75;;
43819;SDS011;67762;52.476;6.046;2023-04-24T04:23:59;1999.90;;;999.90;;
43819;SDS011;67762;52.476;6.046;2023-04-24T04:26:31;1033.18;;;531.40;;
43819;SDS011;67762;52.476;6.046;2023-04-24T04:29:06;1515.25;;;764.47;;
43819;SDS011;67762;52.476;6.046;2023-04-24T04:31:34;70.68;;;67.10;;
43819;SDS011;67762;52.476;6.046;2023-04-24T04:34:05;74.40;;;70.63;;
43819;SDS011;67762;52.476;6.046;2023-04-24T04:36:32;48.92;;;46.47;;
43819;SDS011;67762;52.476;6.046;2023-04-24T04:39:07;78.82;;;74.82;;
43819;SDS011;67762;52.476;6.046;2023-04-24T04:41:53;1018.53;;;517.55;;
43819;SDS011;67762;52.476;6.046;2023-04-24T04:44:21;1999.90;;;999.90;;
43819;SDS011;67762;52.476;6.046;2023-04-24T04:46:49;1999.90;;;999.90;;
43819;SDS011;67762;52.476;6.046;2023-04-24T04:49:25;1999.90;;;999.90;;
43819;SDS011;67762;52.476;6.046;2023-04-24T04:51:53;50.25;;;47.63;;
43819;SDS011;67762;52.476;6.046;2023-04-24T04:54:20;1999.90;;;999.90;;
43819;SDS011;67762;52.476;6.046;2023-04-24T04:56:45;1505.05;;;754.78;;
43819;SDS011;67762;52.476;6.046;2023-04-24T04:59:11;1999.90;;;999.90;;
43819;SDS011;67762;52.476;6.046;2023-04-24T05:01:38;1999.90;;;999.90;;
43819;SDS011;67762;52.476;6.046;2023-04-24T05:04:06;1999.90;;;999.90;;
43819;SDS011;67762;52.476;6.046;2023-04-24T05:06:31;1999.90;;;999.90;;
43819;SDS011;67762;52.476;6.046;2023-04-24T05:08:58;1999.90;;;999.90;;
43819;SDS011;67762;52.476;6.046;2023-04-24T05:11:36;559.75;;;306.67;;
43819;SDS011;67762;52.476;6.046;2023-04-24T05:14:02;1999.90;;;999.90;;
43819;SDS011;67762;52.476;6.046;2023-04-24T05:16:34;1999.90;;;999.90;;
43819;SDS011;67762;52.476;6.046;2023-04-24T05:19:00;1025.03;;;523.78;;
43819;SDS011;67762;52.476;6.046;2023-04-24T05:21:30;1999.90;;;999.90;;
43819;SDS011;67762;52.476;6.046;2023-04-24T05:23:56;1999.90;;;999.90;;
43819;SDS011;67762;52.476;6.046;2023-04-24T05:26:54;70.00;;;66.47;;
43819;SDS011;67762;52.476;6.046;2023-04-24T05:29:25;1999.90;;;999.90;;
43819;SDS011;67762;52.476;6.046;2023-04-24T05:31:52;1044.20;;;541.88;;
43819;SDS011;67762;52.476;6.046;2023-04-24T05:34:18;559.40;;;306.27;;
43819;SDS011;67762;52.476;6.046;2023-04-24T05:36:48;59.83;;;56.70;;
43819;SDS011;67762;52.476;6.046;2023-04-24T05:39:14;1999.90;;;999.90;;
43819;SDS011;67762;52.476;6.046;2023-04-24T05:41:40;1999.90;;;999.90;;
43819;SDS011;67762;52.476;6.046;2023-04-24T05:44:06;62.00;;;58.53;;
43819;SDS011;67762;52.476;6.046;2023-04-24T05:46:31;1025.72;;;524.35;;
43819;SDS011;67762;52.476;6.046;2023-04-24T05:48:57;1031.28;;;529.70;;
43819;SDS011;67762;52.476;6.046;2023-04-24T05:51:23;53.78;;;50.97;;
43819;SDS011;67762;52.476;6.046;2023-04-24T05:53:49;81.75;;;77.47;;
43819;SDS011;67762;52.476;6.046;2023-04-24T05:56:15;81.05;;;76.97;;
43819;SDS011;67762;52.476;6.046;2023-04-24T05:58:41;80.93;;;76.57;;
43819;SDS011;67762;52.476;6.046;2023-04-24T06:01:07;64.45;;;60.95;;
43819;SDS011;67762;52.476;6.046;2023-04-24T06:03:33;68.45;;;64.82;;
43819;SDS011;67762;52.476;6.046;2023-04-24T06:05:58;68.00;;;64.40;;
43819;SDS011;67762;52.476;6.046;2023-04-24T06:08:24;74.60;;;70.80;;
43819;SDS011;67762;52.476;6.046;2023-04-24T06:10:51;66.15;;;62.42;;
43819;SDS011;67762;52.476;6.046;2023-04-24T06:13:19;68.28;;;64.53;;
43819;SDS011;67762;52.476;6.046;2023-04-24T06:16:04;70.30;;;66.07;;
43819;SDS011;67762;52.476;6.046;2023-04-24T06:18:33;76.82;;;72.53;;
43819;SDS011;67762;52.476;6.046;2023-04-24T06:20:59;1037.68;;;535.58;;
43819;SDS011;67762;52.476;6.046;2023-04-24T06:23:24;72.60;;;68.53;;
43819;SDS011;67762;52.476;6.046;2023-04-24T06:25:50;87.10;;;82.38;;
43819;SDS011;67762;52.476;6.046;2023-04-24T06:28:16;75.53;;;71.32;;
43819;SDS011;67762;52.476;6.046;2023-04-24T06:30:42;80.40;;;75.57;;
43819;SDS011;67762;52.476;6.046;2023-04-24T06:33:08;82.43;;;77.85;;
43819;SDS011;67762;52.476;6.046;2023-04-24T06:35:35;79.53;;;75.30;;
43819;SDS011;67762;52.476;6.046;2023-04-24T06:38:03;85.82;;;81.07;;
43819;SDS011;67762;52.476;6.046;2023-04-24T06:40:28;83.05;;;78.43;;
43819;SDS011;67762;52.476;6.046;2023-04-24T06:42:54;71.30;;;67.25;;
43819;SDS011;67762;52.476;6.046;2023-04-24T06:45:20;69.70;;;65.72;;
43819;SDS011;67762;52.476;6.046;2023-04-24T06:47:46;77.40;;;73.28;;
43819;SDS011;67762;52.476;6.046;2023-04-24T06:50:12;79.18;;;74.88;;
43819;SDS011;67762;52.476;6.046;2023-04-24T06:52:37;70.97;;;67.07;;
43819;SDS011;67762;52.476;6.046;2023-04-24T06:55:03;74.88;;;70.70;;
43819;SDS011;67762;52.476;6.046;2023-04-24T06:57:30;70.38;;;66.03;;
43819;SDS011;67762;52.476;6.046;2023-04-24T06:59:56;75.80;;;71.25;;
43819;SDS011;67762;52.476;6.046;2023-04-24T07:02:22;86.65;;;81.32;;
43819;SDS011;67762;52.476;6.046;2023-04-24T07:04:48;70.68;;;66.68;;
43819;SDS011;67762;52.476;6.046;2023-04-24T07:07:13;74.10;;;69.40;;
43819;SDS011;67762;52.476;6.046;2023-04-24T07:09:40;78.43;;;73.68;;
43819;SDS011;67762;52.476;6.046;2023-04-24T07:12:09;76.13;;;71.57;;
43819;SDS011;67762;52.476;6.046;2023-04-24T07:14:38;73.97;;;69.38;;
43819;SDS011;67762;52.476;6.046;2023-04-24T07:17:05;77.85;;;73.15;;
43819;SDS011;67762;52.476;6.046;2023-04-24T07:19:32;78.03;;;73.25;;
43819;SDS011;67762;52.476;6.046;2023-04-24T07:21:59;78.70;;;73.57;;
43819;SDS011;67762;52.476;6.046;2023-04-24T07:24:25;92.80;;;87.63;;
43819;SDS011;67762;52.476;6.046;2023-04-24T07:26:51;82.22;;;77.68;;
43819;SDS011;67762;52.476;6.046;2023-04-24T07:29:17;74.80;;;70.00;;
43819;SDS011;67762;52.476;6.046;2023-04-24T07:31:43;78.95;;;74.00;;
43819;SDS011;67762;52.476;6.046;2023-04-24T07:34:09;80.53;;;75.60;;
43819;SDS011;67762;52.476;6.046;2023-04-24T07:36:34;95.93;;;89.93;;
43819;SDS011;67762;52.476;6.046;2023-04-24T07:39:01;97.97;;;91.22;;
43819;SDS011;67762;52.476;6.046;2023-04-24T07:41:26;98.80;;;92.30;;
43819;SDS011;67762;52.476;6.046;2023-04-24T07:43:53;73.85;;;69.38;;
43819;SDS011;67762;52.476;6.046;2023-04-24T07:46:19;1999.90;;;999.90;;
43819;SDS011;67762;52.476;6.046;2023-04-24T07:48:45;579.60;;;324.50;;
43819;SDS011;67762;52.476;6.046;2023-04-24T07:51:14;120.72;;;112.63;;
43819;SDS011;67762;52.476;6.046;2023-04-24T07:53:40;142.82;;;133.68;;
43819;SDS011;67762;52.476;6.046;2023-04-24T07:56:06;604.60;;;347.77;;
43819;SDS011;67762;52.476;6.046;2023-04-24T07:58:32;104.32;;;96.53;;
43819;SDS011;67762;52.476;6.046;2023-04-24T08:00:58;94.05;;;85.50;;
43819;SDS011;67762;52.476;6.046;2023-04-24T08:03:24;125.28;;;115.70;;
43819;SDS011;67762;52.476;6.046;2023-04-24T08:05:49;113.85;;;105.90;;
43819;SDS011;67762;52.476;6.046;2023-04-24T08:08:16;1999.90;;;999.90;;
43819;SDS011;67762;52.476;6.046;2023-04-24T08:10:42;568.67;;;314.08;;
43819;SDS011;67762;52.476;6.046;2023-04-24T08:13:08;91.63;;;84.25;;
43819;SDS011;67762;52.476;6.046;2023-04-24T08:15:34;1053.70;;;549.97;;
43819;SDS011;67762;52.476;6.046;2023-04-24T08:18:00;1529.60;;;777.70;;
43819;SDS011;67762;52.476;6.046;2023-04-24T08:20:25;1511.85;;;761.08;;
43819;SDS011;67762;52.476;6.046;2023-04-24T08:22:51;138.80;;;129.13;;
43819;SDS011;67762;52.476;6.046;2023-04-24T08:25:17;104.22;;;97.43;;
43819;SDS011;67762;52.476;6.046;2023-04-24T08:27:44;1999.90;;;999.90;;
43819;SDS011;67762;52.476;6.046;2023-04-24T08:30:10;1999.90;;;999.90;;
43819;SDS011;67762;52.476;6.046;2023-04-24T08:32:36;71.00;;;65.85;;
43819;SDS011;67762;52.476;6.046;2023-04-24T08:35:02;560.28;;;306.17;;
43819;SDS011;67762;52.476;6.046;2023-04-24T08:37:28;79.05;;;73.15;;
43819;SDS011;67762;52.476;6.046;2023-04-24T08:39:54;96.65;;;90.40;;
43819;SDS011;67762;52.476;6.046;2023-04-24T08:42:19;100.35;;;93.43;;
43819;SDS011;67762;52.476;6.046;2023-04-24T08:44:46;1999.90;;;999.90;;
43819;SDS011;67762;52.476;6.046;2023-04-24T08:47:14;102.18;;;94.57;;
43819;SDS011;67762;52.476;6.046;2023-04-24T08:49:40;93.68;;;86.57;;
43819;SDS011;67762;52.476;6.046;2023-04-24T08:52:07;98.93;;;93.03;;
43819;SDS011;67762;52.476;6.046;2023-04-24T08:54:33;117.57;;;110.20;;
43819;SDS011;67762;52.476;6.046;2023-04-24T08:57:00;1999.90;;;999.90;;
43819;SDS011;67762;52.476;6.046;2023-04-24T08:59:29;120.22;;;112.18;;
43819;SDS011;67762;52.476;6.046;2023-04-24T09:01:56;119.53;;;112.15;;
43819;SDS011;67762;52.476;6.046;2023-04-24T09:04:22;1068.60;;;564.05;;
43819;SDS011;67762;52.476;6.046;2023-04-24T09:06:50;127.20;;;118.72;;
43819;SDS011;67762;52.476;6.046;2023-04-24T09:09:17;92.45;;;86.22;;
43819;SDS011;67762;52.476;6.046;2023-04-24T09:11:45;1044.88;;;542.17;;
43819;SDS011;67762;52.476;6.046;2023-04-24T09:14:12;1065.00;;;560.97;;
43819;SDS011;67762;52.476;6.046;2023-04-24T09:16:38;578.42;;;323.88;;
43819;SDS011;67762;52.476;6.046;2023-04-24T09:19:04;1052.78;;;549.08;;
43819;SDS011;67762;52.476;6.046;2023-04-24T09:21:33;82.28;;;76.80;;
43819;SDS011;67762;52.476;6.046;2023-04-24T09:24:00;126.43;;;119.03;;
43819;SDS011;67762;52.476;6.046;2023-04-24T09:26:31;98.78;;;91.97;;
43819;SDS011;67762;52.476;6.046;2023-04-24T09:28:58;118.28;;;110.72;;
43819;SDS011;67762;52.476;6.046;2023-04-24T09:31:24;113.00;;;105.57;;
43819;SDS011;67762;52.476;6.046;2023-04-24T09:33:53;1059.47;;;555.92;;
43819;SDS011;67762;52.476;6.046;2023-04-24T09:36:31;1035.75;;;533.33;;
43819;SDS011;67762;52.476;6.046;2023-04-24T09:39:04;1999.90;;;999.90;;
43819;SDS011;67762;52.476;6.046;2023-04-24T09:41:43;126.65;;;118.15;;
43819;SDS011;67762;52.476;6.046;2023-04-24T09:46:40;1048.05;;;544.75;;
43819;SDS011;67762;52.476;6.046;2023-04-24T09:49:10;97.85;;;91.25;;
43819;SDS011;67762;52.476;6.046;2023-04-24T09:51:38;97.63;;;90.65;;
43819;SDS011;67762;52.476;6.046;2023-04-24T09:54:13;122.18;;;114.18;;
43819;SDS011;67762;52.476;6.046;2023-04-24T09:56:47;132.98;;;124.25;;
43819;SDS011;67762;52.476;6.046;2023-04-24T09:59:15;106.32;;;98.65;;
43819;SDS011;67762;52.476;6.046;2023-04-24T10:01:41;120.20;;;112.38;;
43819;SDS011;67762;52.476;6.046;2023-04-24T10:07:04;1999.90;;;999.90;;
43819;SDS011;67762;52.476;6.046;2023-04-24T10:09:31;1050.82;;;547.40;;
43819;SDS011;67762;52.476;6.046;2023-04-24T10:11:58;1528.75;;;776.88;;
43819;SDS011;67762;52.476;6.046;2023-04-24T10:14:25;97.18;;;90.65;;
43819;SDS011;67762;52.476;6.046;2023-04-24T10:16:52;116.85;;;109.43;;
43819;SDS011;67762;52.476;6.046;2023-04-24T10:19:21;85.97;;;79.93;;
43819;SDS011;67762;52.476;6.046;2023-04-24T10:21:51;1999.90;;;999.90;;
43819;SDS011;67762;52.476;6.046;2023-04-24T10:24:18;112.55;;;105.82;;
43819;SDS011;67762;52.476;6.046;2023-04-24T10:26:46;100.20;;;93.20;;
43819;SDS011;67762;52.476;6.046;2023-04-24T10:29:14;1060.43;;;556.50;;
43819;SDS011;67762;52.476;6.046;2023-04-24T10:31:42;1999.90;;;999.90;;
43819;SDS011;67762;52.476;6.046;2023-04-24T10:34:10;1999.90;;;999.90;;
43819;SDS011;67762;52.476;6.046;2023-04-24T10:36:41;1999.90;;;999.90;;
43819;SDS011;67762;52.476;6.046;2023-04-24T10:39:12;1999.90;;;999.90;;
43819;SDS011;67762;52.476;6.046;2023-04-24T10:41:40;1999.90;;;999.90;;
43819;SDS011;67762;52.476;6.046;2023-04-24T10:44:09;1999.90;;;999.90;;
43819;SDS011;67762;52.476;6.046;2023-04-24T10:46:39;1999.90;;;999.90;;
43819;SDS011;67762;52.476;6.046;2023-04-24T10:49:08;1999.90;;;999.90;;
43819;SDS011;67762;52.476;6.046;2023-04-24T10:54:28;1999.90;;;999.90;;
43819;SDS011;67762;52.476;6.046;2023-04-24T10:57:25;1999.90;;;999.90;;
43819;SDS011;67762;52.476;6.046;2023-04-24T10:59:48;1999.90;;;999.90;;
43819;SDS011;67762;52.476;6.046;2023-04-24T11:02:17;1999.90;;;999.90;;
43819;SDS011;67762;52.476;6.046;2023-04-24T11:04:43;1999.90;;;999.90;;
43819;SDS011;67762;52.476;6.046;2023-04-24T11:07:10;1999.90;;;999.90;;
43819;SDS011;67762;52.476;6.046;2023-04-24T11:09:37;1999.90;;;999.90;;
43819;SDS011;67762;52.476;6.046;2023-04-24T11:12:09;1999.90;;;999.90;;
43819;SDS011;67762;52.476;6.046;2023-04-24T11:17:36;1999.90;;;999.90;;
43819;SDS011;67762;52.476;6.046;2023-04-24T11:20:04;1999.90;;;999.90;;
43819;SDS011;67762;52.476;6.046;2023-04-24T11:22:35;1999.90;;;999.90;;
43819;SDS011;67762;52.476;6.046;2023-04-24T11:25:02;1999.90;;;999.90;;
43819;SDS011;67762;52.476;6.046;2023-04-24T11:27:41;1999.90;;;999.90;;
43819;SDS011;67762;52.476;6.046;2023-04-24T11:30:09;1999.90;;;999.90;;
43819;SDS011;67762;52.476;6.046;2023-04-24T11:32:36;1999.90;;;999.90;;
43819;SDS011;67762;52.476;6.046;2023-04-24T11:35:17;1999.90;;;999.90;;
43819;SDS011;67762;52.476;6.046;2023-04-24T11:37:51;1999.90;;;999.90;;
43819;SDS011;67762;52.476;6.046;2023-04-24T11:40:18;1999.90;;;999.90;;
43819;SDS011;67762;52.476;6.046;2023-04-24T11:42:49;1999.90;;;999.90;;
43819;SDS011;67762;52.476;6.046;2023-04-24T11:45:17;1999.90;;;999.90;;
43819;SDS011;67762;52.476;6.046;2023-04-24T11:47:44;1999.90;;;999.90;;
43819;SDS011;67762;52.476;6.046;2023-04-24T11:50:11;1999.90;;;999.90;;
43819;SDS011;67762;52.476;6.046;2023-04-24T11:52:46;1999.90;;;999.90;;
43819;SDS011;67762;52.476;6.046;2023-04-24T12:00:18;1999.90;;;999.90;;
43819;SDS011;67762;52.476;6.046;2023-04-24T12:02:46;1999.90;;;999.90;;
43819;SDS011;67762;52.476;6.046;2023-04-24T12:23:02;1999.90;;;999.90;;
43819;SDS011;67762;52.476;6.046;2023-04-24T12:25:32;1999.90;;;999.90;;
43819;SDS011;67762;52.476;6.046;2023-04-24T12:30:30;1999.90;;;999.90;;
43819;SDS011;67762;52.476;6.046;2023-04-24T12:32:57;1999.90;;;999.90;;
43819;SDS011;67762;52.476;6.046;2023-04-24T12:35:24;1999.90;;;999.90;;
43819;SDS011;67762;52.476;6.046;2023-04-24T12:37:52;1999.90;;;999.90;;
43819;SDS011;67762;52.476;6.046;2023-04-24T12:40:18;1999.90;;;999.90;;
43819;SDS011;67762;52.476;6.046;2023-04-24T12:42:48;1999.90;;;999.90;;
43819;SDS011;67762;52.476;6.046;2023-04-24T12:45:15;1999.90;;;999.90;;
43819;SDS011;67762;52.476;6.046;2023-04-24T12:47:42;1999.90;;;999.90;;
43819;SDS011;67762;52.476;6.046;2023-04-24T12:50:12;1999.90;;;999.90;;
43819;SDS011;67762;52.476;6.046;2023-04-24T12:52:39;1999.90;;;999.90;;
43819;SDS011;67762;52.476;6.046;2023-04-24T12:55:05;1999.90;;;999.90;;
43819;SDS011;67762;52.476;6.046;2023-04-24T12:57:35;1999.90;;;999.90;;
43819;SDS011;67762;52.476;6.046;2023-04-24T13:00:01;1999.90;;;999.90;;
43819;SDS011;67762;52.476;6.046;2023-04-24T13:02:29;1999.90;;;999.90;;
43819;SDS011;67762;52.476;6.046;2023-04-24T13:04:56;1999.90;;;999.90;;
43819;SDS011;67762;52.476;6.046;2023-04-24T13:07:23;1999.90;;;999.90;;
43819;SDS011;67762;52.476;6.046;2023-04-24T13:09:49;1999.90;;;999.90;;
43819;SDS011;67762;52.476;6.046;2023-04-24T13:12:16;1999.90;;;999.90;;
43819;SDS011;67762;52.476;6.046;2023-04-24T13:14:42;1999.90;;;999.90;;
43819;SDS011;67762;52.476;6.046;2023-04-24T13:17:07;1999.90;;;999.90;;
43819;SDS011;67762;52.476;6.046;2023-04-24T13:19:38;1999.90;;;999.90;;
43819;SDS011;67762;52.476;6.046;2023-04-24T13:22:05;1999.90;;;999.90;;
43819;SDS011;67762;52.476;6.046;2023-04-24T13:24:31;1999.90;;;999.90;;
43819;SDS011;67762;52.476;6.046;2023-04-24T13:26:58;1999.90;;;999.90;;
43819;SDS011;67762;52.476;6.046;2023-04-24T13:29:24;1999.90;;;999.90;;
43819;SDS011;67762;52.476;6.046;2023-04-24T13:31:50;1999.90;;;999.90;;
43819;SDS011;67762;52.476;6.046;2023-04-24T13:34:16;1999.90;;;999.90;;
43819;SDS011;67762;52.476;6.046;2023-04-24T13:36:43;1999.90;;;999.90;;
43819;SDS011;67762;52.476;6.046;2023-04-24T13:39:09;1999.90;;;999.90;;
43819;SDS011;67762;52.476;6.046;2023-04-24T13:41:34;1999.90;;;999.90;;
43819;SDS011;67762;52.476;6.046;2023-04-24T13:44:01;1999.90;;;999.90;;
43819;SDS011;67762;52.476;6.046;2023-04-24T13:46:27;1999.90;;;999.90;;
43819;SDS011;67762;52.476;6.046;2023-04-24T13:48:53;1999.90;;;999.90;;
43819;SDS011;67762;52.476;6.046;2023-04-24T13:51:18;1999.90;;;999.90;;
43819;SDS011;67762;52.476;6.046;2023-04-24T13:53:44;1999.90;;;999.90;;
43819;SDS011;67762;52.476;6.046;2023-04-24T13:56:10;1999.90;;;999.90;;
43819;SDS011;67762;52.476;6.046;2023-04-24T13:58:37;1999.90;;;999.90;;
43819;SDS011;67762;52.476;6.046;2023-04-24T14:01:03;1999.90;;;999.90;;
43819;SDS011;67762;52.476;6.046;2023-04-24T14:03:29;1999.90;;;999.90;;
43819;SDS011;67762;52.476;6.046;2023-04-24T14:08:19;1999.90;;;999.90;;
43819;SDS011;67762;52.476;6.046;2023-04-24T14:10:45;1999.90;;;999.90;;
43819;SDS011;67762;52.476;6.046;2023-04-24T14:13:11;1999.90;;;999.90;;
43819;SDS011;67762;52.476;6.046;2023-04-24T14:15:37;1999.90;;;999.90;;
43819;SDS011;67762;52.476;6.046;2023-04-24T14:18:03;1999.90;;;999.90;;
43819;SDS011;67762;52.476;6.046;2023-04-24T14:20:28;1999.90;;;999.90;;
43819;SDS011;67762;52.476;6.046;2023-04-24T14:22:54;1999.90;;;999.90;;
43819;SDS011;67762;52.476;6.046;2023-04-24T14:25:20;1999.90;;;999.90;;
43819;SDS011;67762;52.476;6.046;2023-04-24T14:27:47;1999.90;;;999.90;;
43819;SDS011;67762;52.476;6.046;2023-04-24T14:30:13;1999.90;;;999.90;;
43819;SDS011;67762;52.476;6.046;2023-04-24T14:32:39;1999.90;;;999.90;;
43819;SDS011;67762;52.476;6.046;2023-04-24T14:35:05;1999.90;;;999.90;;